sensor_id;sensor_type;location;lat;lon;timestamp;P1;durP1;ratioP1;P2;durP2;ratioP2
10063;SDS011;5071;52.360;13.134;2023-03-14T00:04:22;0.53;;;0.37;;
10063;SDS011;5071;52.360;13.134;2023-03-14T00:09:24;1.37;;;0.50;;
10063;SDS011;5071;52.360;13.134;2023-03-14T00:14:26;0.50;;;0.40;;
10063;SDS011;5071;52.360;13.134;2023-03-14T00:19:30;1.07;;;0.80;;
10063;SDS011;5071;52.360;13.134;2023-03-14T00:24:32;1.33;;;0.60;;
10063;SDS011;5071;52.360;13.134;2023-03-14T00:29:34;1.63;;;0.57;;
10063;SDS011;5071;52.360;13.134;2023-03-14T00:34:38;0.70;;;0.50;;
10063;SDS011;5071;52.360;13.134;2023-03-14T00:39:40;1.13;;;0.90;;
10063;SDS011;5071;52.360;13.134;2023-03-14T00:44:42;1.23;;;0.60;;
10063;SDS011;5071;52.360;13.134;2023-03-14T00:49:46;1.20;;;0.80;;
10063;SDS011;5071;52.360;13.134;2023-03-14T00:54:48;0.40;;;0.40;;
10063;SDS011;5071;52.360;13.134;2023-03-14T00:59:50;0.60;;;0.60;;
10063;SDS011;5071;52.360;13.134;2023-03-14T01:04:56;0.70;;;0.50;;
10063;SDS011;5071;52.360;13.134;2023-03-14T01:09:59;1.30;;;1.20;;
10063;SDS011;5071;52.360;13.134;2023-03-14T01:15:01;0.77;;;0.70;;
10063;SDS011;5071;52.360;13.134;2023-03-14T01:20:05;2.47;;;0.60;;
10063;SDS011;5071;52.360;13.134;2023-03-14T01:25:11;1.00;;;0.70;;
10063;SDS011;5071;52.360;13.134;2023-03-14T01:30:15;0.90;;;0.53;;
10063;SDS011;5071;52.360;13.134;2023-03-14T01:35:18;0.53;;;0.53;;
10063;SDS011;5071;52.360;13.134;2023-03-14T01:40:21;0.60;;;0.50;;
10063;SDS011;5071;52.360;13.134;2023-03-14T01:51:22;1.67;;;0.60;;
10063;SDS011;5071;52.360;13.134;2023-03-14T01:56:29;0.53;;;0.50;;
10063;SDS011;5071;52.360;13.134;2023-03-14T02:01:32;4.00;;;0.70;;
10063;SDS011;5071;52.360;13.134;2023-03-14T02:06:39;0.97;;;0.60;;
10063;SDS011;5071;52.360;13.134;2023-03-14T02:11:51;0.50;;;0.50;;
10063;SDS011;5071;52.360;13.134;2023-03-14T02:16:53;0.73;;;0.70;;
10063;SDS011;5071;52.360;13.134;2023-03-14T02:21:57;0.50;;;0.40;;
10063;SDS011;5071;52.360;13.134;2023-03-14T02:27:09;0.20;;;0.20;;
10063;SDS011;5071;52.360;13.134;2023-03-14T02:32:12;1.90;;;0.50;;
10063;SDS011;5071;52.360;13.134;2023-03-14T02:37:17;0.77;;;0.40;;
10063;SDS011;5071;52.360;13.134;2023-03-14T02:42:24;0.57;;;0.47;;
10063;SDS011;5071;52.360;13.134;2023-03-14T02:47:27;0.60;;;0.33;;
10063;SDS011;5071;52.360;13.134;2023-03-14T02:52:30;0.83;;;0.53;;
10063;SDS011;5071;52.360;13.134;2023-03-14T02:57:34;2.27;;;0.43;;
10063;SDS011;5071;52.360;13.134;2023-03-14T03:02:36;0.50;;;0.47;;
10063;SDS011;5071;52.360;13.134;2023-03-14T03:07:38;0.60;;;0.50;;
10063;SDS011;5071;52.360;13.134;2023-03-14T03:12:42;0.33;;;0.27;;
10063;SDS011;5071;52.360;13.134;2023-03-14T03:17:44;0.73;;;0.57;;
10063;SDS011;5071;52.360;13.134;2023-03-14T03:22:46;0.40;;;0.40;;
10063;SDS011;5071;52.360;13.134;2023-03-14T03:27:50;1.30;;;0.83;;
10063;SDS011;5071;52.360;13.134;2023-03-14T03:32:52;0.53;;;0.40;;
10063;SDS011;5071;52.360;13.134;2023-03-14T03:37:54;1.13;;;0.50;;
10063;SDS011;5071;52.360;13.134;2023-03-14T03:42:58;0.30;;;0.30;;
10063;SDS011;5071;52.360;13.134;2023-03-14T03:48:00;0.70;;;0.53;;
10063;SDS011;5071;52.360;13.134;2023-03-14T03:53:02;0.37;;;0.37;;
10063;SDS011;5071;52.360;13.134;2023-03-14T03:58:06;0.53;;;0.53;;
10063;SDS011;5071;52.360;13.134;2023-03-14T04:03:08;0.50;;;0.50;;
10063;SDS011;5071;52.360;13.134;2023-03-14T04:08:10;1.23;;;0.70;;
10063;SDS011;5071;52.360;13.134;2023-03-14T04:13:14;0.40;;;0.40;;
10063;SDS011;5071;52.360;13.134;2023-03-14T04:18:16;0.40;;;0.40;;
10063;SDS011;5071;52.360;13.134;2023-03-14T04:23:18;0.47;;;0.47;;
10063;SDS011;5071;52.360;13.134;2023-03-14T04:28:22;1.37;;;0.53;;
10063;SDS011;5071;52.360;13.134;2023-03-14T04:33:24;1.00;;;0.50;;
10063;SDS011;5071;52.360;13.134;2023-03-14T04:38:26;0.60;;;0.40;;
10063;SDS011;5071;52.360;13.134;2023-03-14T04:43:30;0.70;;;0.50;;
10063;SDS011;5071;52.360;13.134;2023-03-14T04:48:32;0.77;;;0.63;;
10063;SDS011;5071;52.360;13.134;2023-03-14T04:53:34;1.00;;;0.50;;
10063;SDS011;5071;52.360;13.134;2023-03-14T04:58:38;2.10;;;0.70;;
10063;SDS011;5071;52.360;13.134;2023-03-14T05:03:40;0.50;;;0.50;;
10063;SDS011;5071;52.360;13.134;2023-03-14T05:08:42;1.77;;;0.50;;
10063;SDS011;5071;52.360;13.134;2023-03-14T05:13:46;0.60;;;0.50;;
10063;SDS011;5071;52.360;13.134;2023-03-14T05:18:48;1.07;;;0.77;;
10063;SDS011;5071;52.360;13.134;2023-03-14T05:23:50;0.47;;;0.40;;
10063;SDS011;5071;52.360;13.134;2023-03-14T05:28:54;1.17;;;0.50;;
10063;SDS011;5071;52.360;13.134;2023-03-14T05:33:56;0.53;;;0.43;;
10063;SDS011;5071;52.360;13.134;2023-03-14T05:38:57;0.40;;;0.40;;
10063;SDS011;5071;52.360;13.134;2023-03-14T05:44:01;2.83;;;0.50;;
10063;SDS011;5071;52.360;13.134;2023-03-14T05:49:04;0.50;;;0.50;;
10063;SDS011;5071;52.360;13.134;2023-03-14T05:54:06;1.70;;;0.60;;
10063;SDS011;5071;52.360;13.134;2023-03-14T05:59:09;0.50;;;0.50;;
10063;SDS011;5071;52.360;13.134;2023-03-14T06:04:12;1.00;;;0.50;;
10063;SDS011;5071;52.360;13.134;2023-03-14T06:09:14;2.70;;;0.70;;
10063;SDS011;5071;52.360;13.134;2023-03-14T06:14:17;3.07;;;0.93;;
10063;SDS011;5071;52.360;13.134;2023-03-14T06:19:20;0.60;;;0.57;;
10063;SDS011;5071;52.360;13.134;2023-03-14T06:24:22;1.83;;;0.50;;
10063;SDS011;5071;52.360;13.134;2023-03-14T06:29:25;1.37;;;0.97;;
10063;SDS011;5071;52.360;13.134;2023-03-14T06:34:28;5.83;;;1.17;;
10063;SDS011;5071;52.360;13.134;2023-03-14T06:39:30;3.20;;;0.60;;
10063;SDS011;5071;52.360;13.134;2023-03-14T06:44:35;1.20;;;0.60;;
10063;SDS011;5071;52.360;13.134;2023-03-14T06:49:38;1.47;;;0.57;;
10063;SDS011;5071;52.360;13.134;2023-03-14T06:54:40;0.90;;;0.60;;
10063;SDS011;5071;52.360;13.134;2023-03-14T06:59:44;3.27;;;0.67;;
10063;SDS011;5071;52.360;13.134;2023-03-14T07:04:46;1.67;;;0.70;;
10063;SDS011;5071;52.360;13.134;2023-03-14T07:09:48;1.00;;;0.70;;
10063;SDS011;5071;52.360;13.134;2023-03-14T07:14:51;0.77;;;0.40;;
10063;SDS011;5071;52.360;13.134;2023-03-14T07:19:53;3.57;;;0.87;;
10063;SDS011;5071;52.360;13.134;2023-03-14T07:24:55;2.10;;;0.77;;
10063;SDS011;5071;52.360;13.134;2023-03-14T07:29:58;1.33;;;0.87;;
10063;SDS011;5071;52.360;13.134;2023-03-14T07:35:00;0.93;;;0.50;;
10063;SDS011;5071;52.360;13.134;2023-03-14T07:40:04;1.90;;;0.57;;
10063;SDS011;5071;52.360;13.134;2023-03-14T07:45:09;3.20;;;0.90;;
10063;SDS011;5071;52.360;13.134;2023-03-14T07:50:12;2.00;;;0.93;;
10063;SDS011;5071;52.360;13.134;2023-03-14T07:55:15;3.80;;;0.70;;
10063;SDS011;5071;52.360;13.134;2023-03-14T08:00:19;4.57;;;0.83;;
10063;SDS011;5071;52.360;13.134;2023-03-14T08:05:23;3.83;;;1.00;;
10063;SDS011;5071;52.360;13.134;2023-03-14T08:10:25;1.80;;;0.70;;
10063;SDS011;5071;52.360;13.134;2023-03-14T08:15:29;3.60;;;0.80;;
10063;SDS011;5071;52.360;13.134;2023-03-14T08:20:32;2.63;;;0.43;;
10063;SDS011;5071;52.360;13.134;2023-03-14T08:25:34;2.97;;;1.27;;
10063;SDS011;5071;52.360;13.134;2023-03-14T08:30:38;1.33;;;0.70;;
10063;SDS011;5071;52.360;13.134;2023-03-14T08:35:40;2.20;;;0.83;;
10063;SDS011;5071;52.360;13.134;2023-03-14T08:40:43;1.37;;;0.67;;
10063;SDS011;5071;52.360;13.134;2023-03-14T08:45:47;2.40;;;0.70;;
10063;SDS011;5071;52.360;13.134;2023-03-14T08:50:49;1.43;;;0.70;;
10063;SDS011;5071;52.360;13.134;2023-03-14T08:55:52;2.63;;;0.77;;
10063;SDS011;5071;52.360;13.134;2023-03-14T09:00:56;2.07;;;0.90;;
10063;SDS011;5071;52.360;13.134;2023-03-14T09:06:01;3.13;;;0.70;;
10063;SDS011;5071;52.360;13.134;2023-03-14T09:11:06;4.37;;;0.80;;
10063;SDS011;5071;52.360;13.134;2023-03-14T09:16:10;1.83;;;0.60;;
10063;SDS011;5071;52.360;13.134;2023-03-14T09:21:12;4.03;;;1.07;;
10063;SDS011;5071;52.360;13.134;2023-03-14T09:26:14;3.67;;;1.17;;
10063;SDS011;5071;52.360;13.134;2023-03-14T09:31:17;1.20;;;0.80;;
10063;SDS011;5071;52.360;13.134;2023-03-14T09:36:20;1.27;;;0.63;;
10063;SDS011;5071;52.360;13.134;2023-03-14T09:41:23;1.23;;;0.60;;
10063;SDS011;5071;52.360;13.134;2023-03-14T09:46:28;1.03;;;0.60;;
10063;SDS011;5071;52.360;13.134;2023-03-14T09:51:32;0.87;;;0.43;;
10063;SDS011;5071;52.360;13.134;2023-03-14T09:56:35;1.30;;;0.70;;
10063;SDS011;5071;52.360;13.134;2023-03-14T10:01:39;4.33;;;2.43;;
10063;SDS011;5071;52.360;13.134;2023-03-14T10:06:42;1.27;;;0.70;;
10063;SDS011;5071;52.360;13.134;2023-03-14T10:11:45;2.50;;;0.93;;
10063;SDS011;5071;52.360;13.134;2023-03-14T10:16:49;0.70;;;0.50;;
10063;SDS011;5071;52.360;13.134;2023-03-14T10:21:52;0.40;;;0.40;;
10063;SDS011;5071;52.360;13.134;2023-03-14T10:26:57;1.20;;;0.60;;
10063;SDS011;5071;52.360;13.134;2023-03-14T10:32:02;4.00;;;0.87;;
10063;SDS011;5071;52.360;13.134;2023-03-14T10:37:07;1.80;;;0.67;;
10063;SDS011;5071;52.360;13.134;2023-03-14T10:42:19;3.67;;;0.60;;
10063;SDS011;5071;52.360;13.134;2023-03-14T10:47:25;1.97;;;0.70;;
10063;SDS011;5071;52.360;13.134;2023-03-14T10:52:29;1.53;;;0.50;;
10063;SDS011;5071;52.360;13.134;2023-03-14T10:57:52;2.67;;;0.53;;
10063;SDS011;5071;52.360;13.134;2023-03-14T11:03:02;0.97;;;0.50;;
10063;SDS011;5071;52.360;13.134;2023-03-14T11:08:11;0.67;;;0.40;;
10063;SDS011;5071;52.360;13.134;2023-03-14T11:13:24;1.37;;;0.30;;
10063;SDS011;5071;52.360;13.134;2023-03-14T11:18:44;0.67;;;0.50;;
10063;SDS011;5071;52.360;13.134;2023-03-14T11:23:59;1.53;;;0.50;;
10063;SDS011;5071;52.360;13.134;2023-03-14T11:29:18;1.33;;;0.43;;
10063;SDS011;5071;52.360;13.134;2023-03-14T11:34:26;2.73;;;0.50;;
10063;SDS011;5071;52.360;13.134;2023-03-14T11:39:34;0.40;;;0.40;;
10063;SDS011;5071;52.360;13.134;2023-03-14T11:44:41;0.83;;;0.43;;
10063;SDS011;5071;52.360;13.134;2023-03-14T11:49:50;0.77;;;0.50;;
10063;SDS011;5071;52.360;13.134;2023-03-14T11:54:56;2.83;;;0.80;;
10063;SDS011;5071;52.360;13.134;2023-03-14T12:00:04;0.67;;;0.43;;
10063;SDS011;5071;52.360;13.134;2023-03-14T12:05:33;0.50;;;0.50;;
10063;SDS011;5071;52.360;13.134;2023-03-14T12:10:42;0.60;;;0.40;;
10063;SDS011;5071;52.360;13.134;2023-03-14T12:15:49;0.30;;;0.20;;
10063;SDS011;5071;52.360;13.134;2023-03-14T12:21:01;0.60;;;0.30;;
10063;SDS011;5071;52.360;13.134;2023-03-14T12:26:07;1.43;;;0.40;;
10063;SDS011;5071;52.360;13.134;2023-03-14T12:42:02;0.87;;;0.30;;
10063;SDS011;5071;52.360;13.134;2023-03-14T12:47:26;1.50;;;0.30;;
10063;SDS011;5071;52.360;13.134;2023-03-14T12:58:35;0.27;;;0.27;;
10063;SDS011;5071;52.360;13.134;2023-03-14T13:03:46;0.63;;;0.40;;
10063;SDS011;5071;52.360;13.134;2023-03-14T13:08:52;0.80;;;0.30;;
10063;SDS011;5071;52.360;13.134;2023-03-14T13:13:57;2.73;;;0.30;;
10063;SDS011;5071;52.360;13.134;2023-03-14T13:19:03;0.97;;;0.30;;
10063;SDS011;5071;52.360;13.134;2023-03-14T13:24:20;0.30;;;0.30;;
10063;SDS011;5071;52.360;13.134;2023-03-14T13:29:26;2.97;;;0.30;;
10063;SDS011;5071;52.360;13.134;2023-03-14T13:34:30;0.77;;;0.40;;
10063;SDS011;5071;52.360;13.134;2023-03-14T13:39:34;1.47;;;0.40;;
10063;SDS011;5071;52.360;13.134;2023-03-14T13:44:42;0.30;;;0.30;;
10063;SDS011;5071;52.360;13.134;2023-03-14T13:49:48;0.97;;;0.47;;
10063;SDS011;5071;52.360;13.134;2023-03-14T13:54:54;0.67;;;0.30;;
10063;SDS011;5071;52.360;13.134;2023-03-14T14:00:02;0.57;;;0.30;;
10063;SDS011;5071;52.360;13.134;2023-03-14T14:05:09;0.60;;;0.30;;
10063;SDS011;5071;52.360;13.134;2023-03-14T14:10:15;0.40;;;0.33;;
10063;SDS011;5071;52.360;13.134;2023-03-14T14:15:22;0.70;;;0.50;;
10063;SDS011;5071;52.360;13.134;2023-03-14T14:20:28;0.50;;;0.20;;
10063;SDS011;5071;52.360;13.134;2023-03-14T14:25:33;0.20;;;0.20;;
10063;SDS011;5071;52.360;13.134;2023-03-14T14:30:37;0.30;;;0.30;;
10063;SDS011;5071;52.360;13.134;2023-03-14T14:35:39;0.30;;;0.20;;
10063;SDS011;5071;52.360;13.134;2023-03-14T14:40:43;0.40;;;0.40;;
10063;SDS011;5071;52.360;13.134;2023-03-14T14:45:49;0.33;;;0.30;;
10063;SDS011;5071;52.360;13.134;2023-03-14T14:50:57;0.20;;;0.20;;
10063;SDS011;5071;52.360;13.134;2023-03-14T14:56:03;0.20;;;0.20;;
10063;SDS011;5071;52.360;13.134;2023-03-14T15:01:11;2.43;;;0.30;;
10063;SDS011;5071;52.360;13.134;2023-03-14T15:06:18;0.47;;;0.40;;
10063;SDS011;5071;52.360;13.134;2023-03-14T15:11:22;0.40;;;0.40;;
10063;SDS011;5071;52.360;13.134;2023-03-14T15:16:29;1.83;;;0.47;;
10063;SDS011;5071;52.360;13.134;2023-03-14T15:21:32;0.13;;;0.10;;
10063;SDS011;5071;52.360;13.134;2023-03-14T15:26:35;1.10;;;0.40;;
10063;SDS011;5071;52.360;13.134;2023-03-14T15:31:39;0.03;;;0.03;;
10063;SDS011;5071;52.360;13.134;2023-03-14T15:36:42;0.20;;;0.20;;
10063;SDS011;5071;52.360;13.134;2023-03-14T15:41:45;0.30;;;0.30;;
10063;SDS011;5071;52.360;13.134;2023-03-14T15:46:48;0.40;;;0.20;;
10063;SDS011;5071;52.360;13.134;2023-03-14T15:51:51;0.20;;;0.20;;
10063;SDS011;5071;52.360;13.134;2023-03-14T15:56:53;0.53;;;0.30;;
10063;SDS011;5071;52.360;13.134;2023-03-14T16:01:56;0.30;;;0.30;;
10063;SDS011;5071;52.360;13.134;2023-03-14T16:06:58;0.60;;;0.50;;
10063;SDS011;5071;52.360;13.134;2023-03-14T16:12:01;1.70;;;0.50;;
10063;SDS011;5071;52.360;13.134;2023-03-14T16:17:05;0.20;;;0.20;;
10063;SDS011;5071;52.360;13.134;2023-03-14T16:22:09;1.37;;;0.50;;
10063;SDS011;5071;52.360;13.134;2023-03-14T16:27:12;0.40;;;0.33;;
10063;SDS011;5071;52.360;13.134;2023-03-14T16:32:15;0.70;;;0.43;;
10063;SDS011;5071;52.360;13.134;2023-03-14T16:37:18;0.63;;;0.60;;
10063;SDS011;5071;52.360;13.134;2023-03-14T16:42:20;0.90;;;0.60;;
10063;SDS011;5071;52.360;13.134;2023-03-14T16:47:24;0.87;;;0.60;;
10063;SDS011;5071;52.360;13.134;2023-03-14T16:52:26;0.90;;;0.50;;
10063;SDS011;5071;52.360;13.134;2023-03-14T16:57:28;0.83;;;0.73;;
10063;SDS011;5071;52.360;13.134;2023-03-14T17:02:31;0.60;;;0.60;;
10063;SDS011;5071;52.360;13.134;2023-03-14T17:07:33;0.73;;;0.57;;
10063;SDS011;5071;52.360;13.134;2023-03-14T17:12:35;0.80;;;0.70;;
10063;SDS011;5071;52.360;13.134;2023-03-14T17:17:38;1.07;;;0.77;;
10063;SDS011;5071;52.360;13.134;2023-03-14T17:22:40;0.70;;;0.50;;
10063;SDS011;5071;52.360;13.134;2023-03-14T17:27:43;0.77;;;0.67;;
10063;SDS011;5071;52.360;13.134;2023-03-14T17:32:48;1.83;;;1.00;;
10063;SDS011;5071;52.360;13.134;2023-03-14T17:37:50;1.57;;;1.13;;
10063;SDS011;5071;52.360;13.134;2023-03-14T17:42:52;0.90;;;0.70;;
10063;SDS011;5071;52.360;13.134;2023-03-14T17:47:55;2.60;;;1.70;;
10063;SDS011;5071;52.360;13.134;2023-03-14T17:52:57;4.27;;;1.10;;
10063;SDS011;5071;52.360;13.134;2023-03-14T17:57:59;3.03;;;1.23;;
10063;SDS011;5071;52.360;13.134;2023-03-14T18:03:03;3.10;;;1.60;;
10063;SDS011;5071;52.360;13.134;2023-03-14T18:08:05;5.47;;;1.47;;
10063;SDS011;5071;52.360;13.134;2023-03-14T18:13:07;3.43;;;1.50;;
10063;SDS011;5071;52.360;13.134;2023-03-14T18:18:12;5.97;;;1.37;;
10063;SDS011;5071;52.360;13.134;2023-03-14T18:23:14;6.03;;;1.70;;
10063;SDS011;5071;52.360;13.134;2023-03-14T18:28:16;5.23;;;1.70;;
10063;SDS011;5071;52.360;13.134;2023-03-14T18:33:20;6.83;;;1.53;;
10063;SDS011;5071;52.360;13.134;2023-03-14T18:38:23;7.70;;;1.40;;
10063;SDS011;5071;52.360;13.134;2023-03-14T18:43:25;3.30;;;1.30;;
10063;SDS011;5071;52.360;13.134;2023-03-14T18:48:29;5.17;;;2.07;;
10063;SDS011;5071;52.360;13.134;2023-03-14T18:53:31;7.77;;;1.80;;
10063;SDS011;5071;52.360;13.134;2023-03-14T18:58:33;2.80;;;1.33;;
10063;SDS011;5071;52.360;13.134;2023-03-14T19:03:36;11.80;;;1.60;;
10063;SDS011;5071;52.360;13.134;2023-03-14T19:08:39;7.27;;;1.70;;
10063;SDS011;5071;52.360;13.134;2023-03-14T19:13:42;3.40;;;1.37;;
10063;SDS011;5071;52.360;13.134;2023-03-14T19:18:45;11.03;;;1.47;;
10063;SDS011;5071;52.360;13.134;2023-03-14T19:23:48;10.97;;;2.47;;
10063;SDS011;5071;52.360;13.134;2023-03-14T19:28:50;9.07;;;1.70;;
10063;SDS011;5071;52.360;13.134;2023-03-14T19:33:54;2.53;;;1.10;;
10063;SDS011;5071;52.360;13.134;2023-03-14T19:38:57;5.60;;;1.63;;
10063;SDS011;5071;52.360;13.134;2023-03-14T19:44:00;2.97;;;1.10;;
10063;SDS011;5071;52.360;13.134;2023-03-14T19:49:04;4.40;;;1.07;;
10063;SDS011;5071;52.360;13.134;2023-03-14T19:54:07;2.37;;;0.80;;
10063;SDS011;5071;52.360;13.134;2023-03-14T19:59:09;4.13;;;1.10;;
10063;SDS011;5071;52.360;13.134;2023-03-14T20:04:13;1.70;;;0.67;;
10063;SDS011;5071;52.360;13.134;2023-03-14T20:09:16;4.03;;;0.63;;
10063;SDS011;5071;52.360;13.134;2023-03-14T20:14:21;3.43;;;0.93;;
10063;SDS011;5071;52.360;13.134;2023-03-14T20:19:25;10.87;;;1.10;;
10063;SDS011;5071;52.360;13.134;2023-03-14T20:24:29;3.20;;;0.80;;
10063;SDS011;5071;52.360;13.134;2023-03-14T20:29:32;4.53;;;1.03;;
10063;SDS011;5071;52.360;13.134;2023-03-14T20:34:40;1.53;;;0.60;;
10063;SDS011;5071;52.360;13.134;2023-03-14T20:39:47;5.33;;;1.00;;
10063;SDS011;5071;52.360;13.134;2023-03-14T20:44:50;1.40;;;0.80;;
10063;SDS011;5071;52.360;13.134;2023-03-14T20:49:59;1.80;;;1.17;;
10063;SDS011;5071;52.360;13.134;2023-03-14T20:55:03;5.87;;;1.50;;
10063;SDS011;5071;52.360;13.134;2023-03-14T21:00:10;4.37;;;1.30;;
10063;SDS011;5071;52.360;13.134;2023-03-14T21:05:18;3.43;;;1.20;;
10063;SDS011;5071;52.360;13.134;2023-03-14T21:10:24;4.07;;;0.90;;
10063;SDS011;5071;52.360;13.134;2023-03-14T21:15:30;9.10;;;1.37;;
10063;SDS011;5071;52.360;13.134;2023-03-14T21:20:34;4.03;;;1.00;;
10063;SDS011;5071;52.360;13.134;2023-03-14T21:25:38;4.70;;;1.13;;
10063;SDS011;5071;52.360;13.134;2023-03-14T21:30:44;4.23;;;1.10;;
10063;SDS011;5071;52.360;13.134;2023-03-14T21:35:50;3.37;;;1.50;;
10063;SDS011;5071;52.360;13.134;2023-03-14T21:40:53;3.13;;;1.20;;
10063;SDS011;5071;52.360;13.134;2023-03-14T21:45:56;7.77;;;1.50;;
10063;SDS011;5071;52.360;13.134;2023-03-14T21:50:59;12.00;;;1.00;;
10063;SDS011;5071;52.360;13.134;2023-03-14T21:56:03;3.83;;;0.67;;
10063;SDS011;5071;52.360;13.134;2023-03-14T22:01:05;6.23;;;1.10;;
10063;SDS011;5071;52.360;13.134;2023-03-14T22:06:09;3.97;;;1.20;;
10063;SDS011;5071;52.360;13.134;2023-03-14T22:11:11;2.20;;;0.70;;
10063;SDS011;5071;52.360;13.134;2023-03-14T22:16:14;13.17;;;1.17;;
10063;SDS011;5071;52.360;13.134;2023-03-14T22:21:17;4.40;;;1.10;;
10063;SDS011;5071;52.360;13.134;2023-03-14T22:26:20;7.23;;;1.20;;
10063;SDS011;5071;52.360;13.134;2023-03-14T22:31:22;10.00;;;1.20;;
10063;SDS011;5071;52.360;13.134;2023-03-14T22:36:25;6.27;;;0.73;;
10063;SDS011;5071;52.360;13.134;2023-03-14T22:41:27;1.83;;;0.83;;
10063;SDS011;5071;52.360;13.134;2023-03-14T22:46:29;4.03;;;0.70;;
10063;SDS011;5071;52.360;13.134;2023-03-14T22:51:32;3.17;;;0.87;;
10063;SDS011;5071;52.360;13.134;2023-03-14T22:56:35;5.30;;;0.87;;
10063;SDS011;5071;52.360;13.134;2023-03-14T23:01:37;6.93;;;1.03;;
10063;SDS011;5071;52.360;13.134;2023-03-14T23:06:40;2.50;;;0.70;;
10063;SDS011;5071;52.360;13.134;2023-03-14T23:11:42;2.07;;;0.70;;
10063;SDS011;5071;52.360;13.134;2023-03-14T23:16:45;3.30;;;1.40;;
10063;SDS011;5071;52.360;13.134;2023-03-14T23:21:49;2.77;;;1.10;;
10063;SDS011;5071;52.360;13.134;2023-03-14T23:26:51;1.83;;;0.67;;
10063;SDS011;5071;52.360;13.134;2023-03-14T23:31:58;4.27;;;1.47;;
10063;SDS011;5071;52.360;13.134;2023-03-14T23:37:01;4.20;;;0.70;;
10063;SDS011;5071;52.360;13.134;2023-03-14T23:42:04;2.50;;;1.03;;
10063;SDS011;5071;52.360;13.134;2023-03-14T23:47:07;2.07;;;0.33;;
10063;SDS011;5071;52.360;13.134;2023-03-14T23:52:11;4.43;;;0.77;;
10063;SDS011;5071;52.360;13.134;2023-03-14T23:57:13;5.13;;;0.90;;
